Wainwright Airport Wainwright US
ICAO: PAWI
IATA:
Category: Medium
Scheduled Services:

Elevation: 41 ft
TransAlt. 18000 ft.

Airport Communications:
ASOS:132.25
ANCHORAGE CNTR:135.3
CTAF:122.8
FAIRBANKS RDO:122.5

PAWI Zoom In..

If you have problems with the map follow the link
https://www.worldairports.se/pages/airport.php?
ICAO=PAWI

Runways:

(A) RW 05 length 4494 ft width 110 ft
---- / hdg 50

(B) RW 23 length 4494 ft width 110 ft
---- / hdg 230

Location; PAWI
Day. 26 / Time. 00.53 Zulu
* Altimeter: 30.28
* Temperature: -29° c. 20.2°f.
* Wind from: 230° Speed 07 kn.
Dewpoint: -33° c.
Clouds: Clear (automated report).

PAWI 260053Z AUTO 23007KT CLR M29/M33 A3028 RMK SLP256 I1001 T12941328 TSNO PNO $ VIA AUTODIAL


Wind From 230°
Speed 07 kn.

 
 
jpsmedia worldairports.se 2020   terms of use